KCOS/COS METAR and TAF weather

Enter ICAO airport designator
Station Type Date Time Source
KCOS METAR 2024/04/18 05:54 UTC NOAA

KCOS 180554Z 35019G25KT 10SM CLR 06/01 A3005 RMK AO2 PK WND 01029/0534 SLP129 T00610011 10217 20061 51030


Station Type Date Time Source
KCOS Decoded METAR 2024/04/18 05:54 UTC NOAA

COLORADO SPRINGS MUNI, CO, United States (KCOS) 38-49N 104-43W 1856M
Apr 18, 2024 - 01:54 AM EDT / 2024.04.18 0554 UTC
Wind: from the N (350 degrees) at 22 MPH (19 KT) gusting to 29 MPH (25 KT):0
Visibility: 10 mile(s):0
Sky conditions: clear
Temperature: 43.0 F (6.1 C)
Dew Point: 34.0 F (1.1 C)
Relative Humidity: 70%
Pressure (altimeter): 30.05 in. Hg (1017 hPa)
Pressure tendency: 0.09 inches (3.0 hPa) higher than three hours ago
ob: KCOS 180554Z 35019G25KT 10SM CLR 06/01 A3005 RMK AO2 PK WND 01029/0534 SLP129 T00610011 10217 20061 51030
cycle: 6

Station Type Date Time Source
KCOS TAF 2024/04/18 06:22 UTC NOAA